Time;durP1;ratioP1;P1;durP2;ratioP2;P2;SDS_P1;SDS_P2;PMS_P1;PMS_P2;Temp;Humidity;BMP_temperature;BMP_pressure;BME280_temperature;BME280_humidity;BME280_pressure;Samples;Min_cycle;Max_cycle;Signal;HPM_P1;HPM_P2
2023/02/22 00:01:18;;;;;;;73.15;23.35;;;;;;;;;;5019575;28;20658;-72
2023/02/22 00:03:48;;;;;;;55.03;20.88;;;;;;;;;;5028265;28;20293;-72
2023/02/22 00:06:16;;;;;;;59.50;23.65;;;;;;;;;;5029278;28;20223;-72
2023/02/22 00:08:45;;;;;;;57.55;20.10;;;;;;;;;;5012256;28;20243;-72
2023/02/22 00:11:13;;;;;;;58.53;20.67;;;;;;;;;;5012140;28;20545;-72
2023/02/22 00:13:42;;;;;;;46.45;21.65;;;;;;;;;;5020829;28;20578;-72
2023/02/22 00:16:11;;;;;;;52.60;20.25;;;;;;;;;;5011168;28;20291;-72
2023/02/22 00:18:39;;;;;;;50.78;19.70;;;;;;;;;;5009294;28;20594;-71
2023/02/22 00:21:09;;;;;;;46.42;20.38;;;;;;;;;;5018673;28;20671;-71
2023/02/22 00:23:38;;;;;;;49.22;20.05;;;;;;;;;;5031118;28;20656;-71
2023/02/22 00:26:08;;;;;;;57.33;20.35;;;;;;;;;;5016367;28;20727;-72
2023/02/22 00:28:35;;;;;;;38.78;19.40;;;;;;;;;;5028780;28;20223;-71
2023/02/22 00:31:04;;;;;;;57.08;20.00;;;;;;;;;;5011246;28;20211;-71
2023/02/22 00:33:31;;;;;;;47.47;19.70;;;;;;;;;;5025074;28;20199;-72
2023/02/22 00:35:58;;;;;;;43.60;18.27;;;;;;;;;;5027465;28;20200;-71
2023/02/22 00:38:25;;;;;;;45.60;18.38;;;;;;;;;;5010021;28;20223;-73
2023/02/22 00:40:52;;;;;;;42.72;17.20;;;;;;;;;;5012365;28;20204;-71
2023/02/22 00:43:21;;;;;;;37.35;18.95;;;;;;;;;;5026535;28;20199;-71
2023/02/22 00:45:48;;;;;;;39.30;18.23;;;;;;;;;;5014506;28;20738;-72
2023/02/22 00:48:16;;;;;;;51.50;20.65;;;;;;;;;;5023052;28;20647;-72
2023/02/22 00:50:43;;;;;;;40.50;19.40;;;;;;;;;;5029809;28;20619;-72
2023/02/22 00:53:11;;;;;;;43.72;18.00;;;;;;;;;;5030420;28;20195;-71
2023/02/22 00:55:38;;;;;;;66.40;21.23;;;;;;;;;;5011897;28;20286;-71
2023/02/22 00:58:06;;;;;;;52.83;22.55;;;;;;;;;;5011540;28;20218;-72
2023/02/22 01:00:36;;;;;;;46.58;18.80;;;;;;;;;;5031658;28;20203;-72
2023/02/22 01:03:03;;;;;;;49.15;21.30;;;;;;;;;;5012036;28;20199;-72
2023/02/22 01:05:32;;;;;;;45.25;19.92;;;;;;;;;;5017840;28;20196;-72
2023/02/22 01:07:59;;;;;;;41.40;18.40;;;;;;;;;;5005325;28;20230;-72
2023/02/22 01:10:28;;;;;;;41.38;18.50;;;;;;;;;;5018938;28;20203;-72
2023/02/22 01:12:55;;;;;;;49.42;18.40;;;;;;;;;;5010443;28;20207;-72
2023/02/22 01:15:24;;;;;;;34.88;17.60;;;;;;;;;;5012967;28;20195;-72
2023/02/22 01:17:53;;;;;;;41.47;19.77;;;;;;;;;;5012135;28;20603;-72
2023/02/22 01:20:21;;;;;;;51.15;21.90;;;;;;;;;;5012086;28;20191;-72
2023/02/22 01:22:49;;;;;;;44.72;20.17;;;;;;;;;;5027245;28;20237;-72
2023/02/22 01:25:17;;;;;;;50.42;21.55;;;;;;;;;;5014850;28;20204;-72
2023/02/22 01:27:44;;;;;;;50.00;20.40;;;;;;;;;;5009933;28;20235;-72
2023/02/22 01:30:12;;;;;;;47.90;20.75;;;;;;;;;;5011227;28;20200;-72
2023/02/22 01:32:40;;;;;;;60.35;22.75;;;;;;;;;;5010833;28;20672;-72
2023/02/22 01:35:10;;;;;;;42.80;20.15;;;;;;;;;;5025142;28;20290;-72
2023/02/22 01:37:37;;;;;;;54.25;21.73;;;;;;;;;;5031429;28;20223;-72
2023/02/22 01:40:06;;;;;;;46.20;22.38;;;;;;;;;;5002260;28;20215;-72
2023/02/22 01:42:34;;;;;;;77.85;26.45;;;;;;;;;;5033917;28;20203;-72
2023/02/22 01:45:19;;;;;;;69.95;24.45;;;;;;;;;;5012548;28;20203;-72
2023/02/22 01:47:46;;;;;;;56.80;22.50;;;;;;;;;;5014690;28;20595;-73
2023/02/22 01:50:15;;;;;;;52.53;21.65;;;;;;;;;;5012782;28;20572;-72
2023/02/22 01:52:42;;;;;;;51.33;22.60;;;;;;;;;;5015088;28;20204;-73
2023/02/22 01:55:09;;;;;;;63.92;23.60;;;;;;;;;;5022219;28;20199;-71
2023/02/22 01:57:37;;;;;;;48.33;23.05;;;;;;;;;;5013912;28;20333;-72
2023/02/22 02:00:09;;;;;;;55.65;22.52;;;;;;;;;;5002942;28;20264;-72
2023/02/22 02:02:39;;;;;;;51.03;21.85;;;;;;;;;;4984288;28;20332;-72
2023/02/22 02:05:07;;;;;;;69.45;23.65;;;;;;;;;;5014298;28;20751;-72
2023/02/22 02:07:36;;;;;;;54.92;20.85;;;;;;;;;;5014515;28;20231;-72
2023/02/22 02:10:05;;;;;;;53.63;21.25;;;;;;;;;;5011544;28;20219;-72
2023/02/22 02:12:36;;;;;;;58.60;22.85;;;;;;;;;;5019114;28;20207;-72
2023/02/22 02:15:19;;;;;;;59.80;21.92;;;;;;;;;;5021815;28;20199;-72
2023/02/22 02:17:46;;;;;;;55.53;22.92;;;;;;;;;;5034581;28;20223;-72
2023/02/22 02:20:17;;;;;;;65.22;22.35;;;;;;;;;;5009168;28;20199;-71
2023/02/22 02:22:48;;;;;;;52.95;20.75;;;;;;;;;;5031779;28;20207;-74
2023/02/22 02:25:25;;;;;;;54.67;22.90;;;;;;;;;;5029548;28;20203;-73
2023/02/22 02:28:10;;;;;;;51.13;22.35;;;;;;;;;;5033386;28;20297;-73
2023/02/22 02:30:52;;;;;;;57.80;24.00;;;;;;;;;;5027361;28;20881;-71
2023/02/22 02:33:25;;;;;;;46.63;21.88;;;;;;;;;;5005672;28;20198;-72
2023/02/22 02:35:58;;;;;;;62.53;23.55;;;;;;;;;;5001034;28;20203;-72
2023/02/22 02:38:31;;;;;;;46.85;21.77;;;;;;;;;;5014125;28;20319;-72
2023/02/22 02:41:01;;;;;;;54.70;22.50;;;;;;;;;;5014113;28;20196;-72
2023/02/22 02:43:32;;;;;;;43.50;20.30;;;;;;;;;;5018887;28;20204;-72
2023/02/22 02:46:03;;;;;;;68.57;24.25;;;;;;;;;;5033472;28;20684;-70
2023/02/22 02:48:33;;;;;;;50.10;22.42;;;;;;;;;;5030134;28;20231;-72
2023/02/22 02:51:01;;;;;;;57.88;23.40;;;;;;;;;;5014352;28;20214;-72
2023/02/22 02:53:37;;;;;;;53.20;21.40;;;;;;;;;;5023145;28;20218;-71
2023/02/22 02:56:05;;;;;;;55.45;20.80;;;;;;;;;;5034015;28;20199;-72
2023/02/22 02:58:32;;;;;;;49.00;21.90;;;;;;;;;;5031858;28;20226;-72
2023/02/22 03:01:03;;;;;;;46.85;20.48;;;;;;;;;;5022852;28;20589;-72
2023/02/22 03:03:43;;;;;;;44.15;20.13;;;;;;;;;;5012785;28;20262;-72
2023/02/22 03:06:23;;;;;;;43.97;18.63;;;;;;;;;;4988446;28;20665;-70
2023/02/22 03:08:54;;;;;;;48.13;20.38;;;;;;;;;;5013950;28;20228;-71
2023/02/22 03:11:23;;;;;;;46.22;20.25;;;;;;;;;;5009941;28;20198;-71
2023/02/22 03:13:54;;;;;;;51.95;20.58;;;;;;;;;;5012702;28;20203;-72
2023/02/22 03:16:23;;;;;;;41.22;18.17;;;;;;;;;;5033874;28;20203;-72
2023/02/22 03:18:55;;;;;;;40.25;19.35;;;;;;;;;;5021393;28;20708;-71
2023/02/22 03:21:25;;;;;;;34.88;17.52;;;;;;;;;;5019988;28;20577;-71
2023/02/22 03:24:02;;;;;;;42.10;18.92;;;;;;;;;;5011433;28;20679;-72
2023/02/22 03:26:32;;;;;;;41.22;17.65;;;;;;;;;;5012508;28;20195;-72
2023/02/22 03:29:03;;;;;;;36.00;18.80;;;;;;;;;;5013095;28;20215;-73
2023/02/22 03:31:36;;;;;;;42.08;18.95;;;;;;;;;;5011026;28;20665;-72
2023/02/22 03:34:07;;;;;;;37.08;17.38;;;;;;;;;;5020322;28;20203;-72
2023/02/22 03:36:37;;;;;;;37.15;19.02;;;;;;;;;;5031921;28;20199;-73
2023/02/22 03:39:07;;;;;;;38.88;19.00;;;;;;;;;;5018098;28;20199;-71
2023/02/22 03:41:37;;;;;;;42.15;19.90;;;;;;;;;;5030400;28;20230;-72
2023/02/22 03:44:07;;;;;;;32.28;16.70;;;;;;;;;;5009798;28;20202;-71
2023/02/22 03:46:35;;;;;;;42.00;18.13;;;;;;;;;;5032542;28;20252;-69
2023/02/22 03:49:04;;;;;;;38.58;17.50;;;;;;;;;;5025246;28;20226;-72
2023/02/22 03:51:33;;;;;;;45.03;19.20;;;;;;;;;;5028887;28;20203;-71
2023/02/22 03:54:00;;;;;;;35.97;17.35;;;;;;;;;;5008498;28;20774;-71
2023/02/22 03:56:34;;;;;;;32.97;16.77;;;;;;;;;;5029025;28;20222;-72
2023/02/22 03:59:01;;;;;;;28.50;14.93;;;;;;;;;;5033022;28;20591;-73
2023/02/22 04:01:28;;;;;;;32.45;17.83;;;;;;;;;;5025668;28;20206;-73
2023/02/22 04:03:55;;;;;;;40.67;18.23;;;;;;;;;;5030819;28;20487;-74
2023/02/22 04:06:22;;;;;;;32.00;16.00;;;;;;;;;;5031868;28;20202;-72
2023/02/22 04:08:51;;;;;;;37.70;18.00;;;;;;;;;;5025035;28;20220;-72
2023/02/22 04:11:18;;;;;;;32.38;17.35;;;;;;;;;;5018469;28;20210;-72
2023/02/22 04:13:45;;;;;;;38.15;18.58;;;;;;;;;;5021932;28;20198;-72
2023/02/22 04:16:12;;;;;;;33.00;16.52;;;;;;;;;;5032417;28;20211;-73
2023/02/22 04:18:39;;;;;;;33.30;16.02;;;;;;;;;;5012561;28;20589;-70
2023/02/22 04:21:07;;;;;;;28.90;15.68;;;;;;;;;;5027291;28;20203;-71
2023/02/22 04:23:35;;;;;;;29.05;14.13;;;;;;;;;;5008718;28;20200;-71
2023/02/22 04:26:03;;;;;;;31.42;16.15;;;;;;;;;;5024771;28;20199;-71
2023/02/22 04:28:30;;;;;;;30.70;15.25;;;;;;;;;;5004931;28;20251;-71
2023/02/22 04:30:57;;;;;;;26.27;14.60;;;;;;;;;;4994557;28;20720;-71
2023/02/22 04:33:24;;;;;;;33.28;16.85;;;;;;;;;;5011287;28;20684;-72
2023/02/22 04:35:51;;;;;;;31.45;16.88;;;;;;;;;;5016502;28;20204;-73
2023/02/22 04:38:18;;;;;;;34.63;16.77;;;;;;;;;;5005059;28;20339;-72
2023/02/22 04:40:46;;;;;;;31.10;16.05;;;;;;;;;;5009918;28;20211;-72
2023/02/22 04:43:14;;;;;;;27.33;13.88;;;;;;;;;;4992459;28;20669;-71
2023/02/22 04:45:41;;;;;;;33.10;15.60;;;;;;;;;;4999350;28;20200;-72
2023/02/22 04:48:08;;;;;;;27.15;14.52;;;;;;;;;;5024094;28;20231;-72
2023/02/22 04:50:35;;;;;;;29.98;14.57;;;;;;;;;;5022742;28;20210;-72
2023/02/22 04:53:02;;;;;;;30.75;16.00;;;;;;;;;;5029324;28;20203;-72
2023/02/22 04:55:30;;;;;;;27.00;14.52;;;;;;;;;;5012423;28;20768;-72
2023/02/22 04:57:57;;;;;;;29.08;14.15;;;;;;;;;;5029430;28;20222;-72
2023/02/22 05:00:26;;;;;;;32.03;15.85;;;;;;;;;;5022423;28;20548;-71
2023/02/22 05:02:53;;;;;;;28.30;14.48;;;;;;;;;;5031504;28;20207;-72
2023/02/22 05:05:21;;;;;;;26.98;15.30;;;;;;;;;;5019836;28;20199;-73
2023/02/22 05:07:48;;;;;;;24.63;13.63;;;;;;;;;;5031731;28;20223;-73
2023/02/22 05:10:16;;;;;;;27.10;15.07;;;;;;;;;;5027269;28;20702;-72
2023/02/22 05:12:43;;;;;;;26.63;14.18;;;;;;;;;;5028476;28;20827;-72
2023/02/22 05:15:10;;;;;;;23.27;14.30;;;;;;;;;;5012825;28;20222;-71
2023/02/22 05:17:39;;;;;;;26.08;15.35;;;;;;;;;;5046734;22;20242;-74
2023/02/22 05:20:07;;;;;;;24.77;14.52;;;;;;;;;;5035496;28;20194;-74
2023/02/22 05:22:35;;;;;;;26.75;15.75;;;;;;;;;;5019756;28;20203;-74
2023/02/22 05:25:02;;;;;;;22.88;13.52;;;;;;;;;;5029337;28;20565;-75
2023/02/22 05:27:29;;;;;;;25.77;15.15;;;;;;;;;;5033310;28;20627;-75
2023/02/22 05:29:56;;;;;;;23.02;12.77;;;;;;;;;;5036413;28;20210;-75
2023/02/22 05:32:23;;;;;;;18.90;12.45;;;;;;;;;;5032722;28;20241;-74
2023/02/22 05:34:52;;;;;;;25.85;13.80;;;;;;;;;;5022303;28;20560;-74
2023/02/22 05:37:19;;;;;;;23.05;13.05;;;;;;;;;;5027191;28;20215;-74
2023/02/22 05:39:46;;;;;;;28.52;14.43;;;;;;;;;;5030394;28;20191;-73
2023/02/22 05:42:13;;;;;;;22.30;13.10;;;;;;;;;;5017731;28;20207;-75
2023/02/22 05:44:40;;;;;;;27.10;13.20;;;;;;;;;;5029775;28;20196;-75
2023/02/22 05:47:07;;;;;;;23.17;13.00;;;;;;;;;;5029238;28;20203;-75
2023/02/22 05:49:34;;;;;;;23.98;14.30;;;;;;;;;;5019343;28;20223;-74
2023/02/22 05:52:03;;;;;;;25.25;13.35;;;;;;;;;;5002900;28;20203;-74
2023/02/22 05:54:30;;;;;;;23.85;13.90;;;;;;;;;;4991633;28;20655;-74
2023/02/22 05:56:57;;;;;;;23.80;13.40;;;;;;;;;;5003662;28;20652;-74
2023/02/22 05:59:24;;;;;;;24.13;14.45;;;;;;;;;;5016120;28;20227;-75
2023/02/22 06:01:51;;;;;;;29.73;14.73;;;;;;;;;;5021130;28;20199;-74
2023/02/22 06:04:18;;;;;;;24.10;13.40;;;;;;;;;;5021946;28;20199;-75
2023/02/22 06:06:46;;;;;;;27.63;14.68;;;;;;;;;;5039075;28;20210;-74
2023/02/22 06:09:14;;;;;;;25.23;13.63;;;;;;;;;;5042097;28;20203;-75
2023/02/22 06:11:41;;;;;;;20.63;11.93;;;;;;;;;;5050723;28;20206;-74
2023/02/22 06:14:08;;;;;;;23.38;13.43;;;;;;;;;;5047486;28;20191;-74
2023/02/22 06:16:35;;;;;;;23.95;13.88;;;;;;;;;;5043822;28;20211;-74
2023/02/22 06:19:02;;;;;;;25.52;12.65;;;;;;;;;;5030125;28;20251;-73
2023/02/22 06:21:29;;;;;;;23.02;12.85;;;;;;;;;;5014029;28;20207;-74
2023/02/22 06:23:56;;;;;;;22.02;12.82;;;;;;;;;;5050229;28;20198;-74
2023/02/22 06:26:25;;;;;;;18.33;11.75;;;;;;;;;;5053090;28;20206;-74
2023/02/22 06:28:52;;;;;;;21.00;12.50;;;;;;;;;;5035050;28;20211;-74
2023/02/22 06:31:19;;;;;;;21.70;11.75;;;;;;;;;;5032046;28;20218;-75
2023/02/22 06:33:46;;;;;;;20.00;12.07;;;;;;;;;;5023946;28;20196;-75
2023/02/22 06:36:13;;;;;;;22.58;12.85;;;;;;;;;;5032089;28;20202;-75
2023/02/22 06:38:40;;;;;;;17.08;11.43;;;;;;;;;;5017295;28;20227;-75
2023/02/22 06:41:09;;;;;;;20.63;12.90;;;;;;;;;;4990751;28;20210;-74
2023/02/22 06:43:37;;;;;;;19.77;12.25;;;;;;;;;;5033111;28;20195;-74
2023/02/22 06:46:04;;;;;;;19.92;12.05;;;;;;;;;;5019393;28;20211;-74
2023/02/22 06:48:31;;;;;;;26.35;12.57;;;;;;;;;;5027016;28;20222;-73
2023/02/22 06:50:58;;;;;;;21.13;13.02;;;;;;;;;;5027561;28;20210;-75
2023/02/22 06:53:25;;;;;;;18.40;11.75;;;;;;;;;;5033952;28;20199;-75
2023/02/22 06:55:54;;;;;;;26.05;14.82;;;;;;;;;;5008442;28;20213;-74
2023/02/22 06:58:21;;;;;;;18.50;11.70;;;;;;;;;;5012703;28;20219;-75
2023/02/22 07:00:49;;;;;;;22.27;13.10;;;;;;;;;;5020708;28;20200;-74
2023/02/22 07:03:16;;;;;;;19.90;12.38;;;;;;;;;;5028278;28;20214;-74
2023/02/22 07:05:44;;;;;;;21.35;13.25;;;;;;;;;;5029628;28;20622;-75
2023/02/22 07:08:11;;;;;;;22.95;14.20;;;;;;;;;;5027187;28;20318;-74
2023/02/22 07:10:39;;;;;;;21.35;12.40;;;;;;;;;;5006888;28;20203;-74
2023/02/22 07:13:07;;;;;;;25.25;13.25;;;;;;;;;;5009096;28;20203;-74
2023/02/22 07:15:35;;;;;;;28.40;14.05;;;;;;;;;;5052140;28;20273;-74
2023/02/22 07:18:04;;;;;;;19.90;13.10;;;;;;;;;;5051366;28;20703;-74
2023/02/22 07:20:32;;;;;;;24.35;13.82;;;;;;;;;;5053453;28;20210;-73
2023/02/22 07:22:59;;;;;;;20.27;12.23;;;;;;;;;;5022636;28;20203;-74
2023/02/22 07:25:26;;;;;;;22.02;13.40;;;;;;;;;;5037147;28;20203;-74
2023/02/22 07:27:53;;;;;;;23.70;13.35;;;;;;;;;;5008850;28;21224;-74
2023/02/22 07:30:24;;;;;;;25.42;12.70;;;;;;;;;;5009509;28;20196;-75
2023/02/22 07:32:51;;;;;;;26.08;14.98;;;;;;;;;;5025753;28;20350;-75
2023/02/22 07:35:21;;;;;;;29.48;14.90;;;;;;;;;;5027562;28;20195;-74
2023/02/22 07:37:48;;;;;;;23.40;14.25;;;;;;;;;;5005983;28;20698;-74
2023/02/22 07:40:16;;;;;;;27.25;15.00;;;;;;;;;;5025340;28;20215;-74
2023/02/22 07:42:53;;;;;;;19.27;12.98;;;;;;;;;;5033030;28;20657;-74
2023/02/22 07:45:21;;;;;;;23.05;12.77;;;;;;;;;;5021585;28;20202;-75
2023/02/22 07:47:48;;;;;;;22.58;14.07;;;;;;;;;;5026625;28;20234;-74
2023/02/22 07:50:15;;;;;;;22.30;14.50;;;;;;;;;;5029154;28;20191;-74
2023/02/22 07:52:46;;;;;;;20.83;12.60;;;;;;;;;;5017944;28;20214;-75
2023/02/22 07:55:15;;;;;;;21.10;12.82;;;;;;;;;;5025530;28;20589;-73
2023/02/22 07:57:42;;;;;;;25.70;14.30;;;;;;;;;;5012579;28;20223;-73
2023/02/22 08:00:10;;;;;;;25.05;13.38;;;;;;;;;;5021088;28;20238;-73
2023/02/22 08:02:37;;;;;;;20.15;13.15;;;;;;;;;;5017405;28;20338;-73
2023/02/22 08:05:06;;;;;;;19.75;13.10;;;;;;;;;;5012238;28;20624;-73
2023/02/22 08:07:33;;;;;;;24.33;13.38;;;;;;;;;;5013098;28;20220;-73
2023/02/22 08:10:05;;;;;;;19.48;13.23;;;;;;;;;;5012409;28;20405;-73
2023/02/22 08:12:32;;;;;;;19.45;12.55;;;;;;;;;;5025887;28;20203;-73
2023/02/22 08:14:59;;;;;;;21.60;13.52;;;;;;;;;;5032363;28;20207;-73
2023/02/22 08:17:26;;;;;;;23.13;14.05;;;;;;;;;;5015954;28;20227;-73
2023/02/22 08:19:53;;;;;;;23.42;14.40;;;;;;;;;;5031110;28;20218;-75
2023/02/22 08:22:20;;;;;;;20.70;12.13;;;;;;;;;;5030081;28;20202;-74
2023/02/22 08:24:47;;;;;;;24.77;13.95;;;;;;;;;;5032205;28;20195;-74
2023/02/22 08:27:16;;;;;;;18.70;11.45;;;;;;;;;;5028849;28;20220;-74
2023/02/22 08:29:43;;;;;;;26.92;14.25;;;;;;;;;;5032682;28;20198;-74
2023/02/22 08:32:10;;;;;;;22.58;13.48;;;;;;;;;;5031657;28;20203;-73
2023/02/22 08:34:37;;;;;;;24.63;14.63;;;;;;;;;;5029421;28;20199;-73
2023/02/22 08:37:04;;;;;;;19.77;12.73;;;;;;;;;;5031901;28;20200;-73
2023/02/22 08:39:31;;;;;;;23.38;13.15;;;;;;;;;;5032535;28;20223;-73
2023/02/22 08:41:58;;;;;;;26.40;13.23;;;;;;;;;;5030324;28;20203;-73
2023/02/22 08:44:26;;;;;;;22.75;12.98;;;;;;;;;;5013449;28;20578;-73
2023/02/22 08:46:54;;;;;;;19.70;13.27;;;;;;;;;;5011869;28;20199;-73
2023/02/22 08:49:21;;;;;;;23.20;12.90;;;;;;;;;;5012112;28;20657;-73
2023/02/22 08:51:48;;;;;;;18.67;11.80;;;;;;;;;;5011239;28;20207;-73
2023/02/22 08:54:16;;;;;;;19.83;12.50;;;;;;;;;;5012572;28;20203;-73
2023/02/22 08:56:43;;;;;;;27.80;14.25;;;;;;;;;;5012320;28;20242;-73
2023/02/22 08:59:11;;;;;;;21.13;13.35;;;;;;;;;;5011385;28;20570;-73
2023/02/22 09:01:39;;;;;;;20.48;11.75;;;;;;;;;;5011938;28;20206;-73
2023/02/22 09:04:06;;;;;;;25.60;12.40;;;;;;;;;;5011906;28;20207;-73
2023/02/22 09:06:34;;;;;;;24.02;13.73;;;;;;;;;;5012052;28;20203;-73
2023/02/22 09:09:01;;;;;;;18.92;12.55;;;;;;;;;;5023407;28;20657;-73
2023/02/22 09:11:28;;;;;;;23.92;13.90;;;;;;;;;;5029092;28;20203;-73
2023/02/22 09:13:55;;;;;;;18.67;13.02;;;;;;;;;;5031922;28;20206;-73
2023/02/22 09:16:22;;;;;;;22.23;13.65;;;;;;;;;;5030893;28;20206;-73
2023/02/22 09:18:51;;;;;;;22.42;12.85;;;;;;;;;;5031463;28;20235;-73
2023/02/22 09:21:18;;;;;;;25.00;14.98;;;;;;;;;;5031335;28;20199;-74
2023/02/22 09:23:47;;;;;;;24.02;13.38;;;;;;;;;;5017952;28;20200;-74
2023/02/22 09:26:15;;;;;;;21.13;12.25;;;;;;;;;;5017288;28;20575;-74
2023/02/22 09:28:42;;;;;;;23.37;13.73;;;;;;;;;;5015216;28;20300;-74
2023/02/22 09:31:09;;;;;;;25.60;13.60;;;;;;;;;;5030418;28;20442;-74
2023/02/22 09:33:36;;;;;;;18.70;12.37;;;;;;;;;;5029798;28;20465;-74
2023/02/22 09:36:05;;;;;;;27.30;14.87;;;;;;;;;;5029678;28;20458;-73
2023/02/22 09:38:32;;;;;;;24.67;14.27;;;;;;;;;;5031250;28;20465;-74
2023/02/22 09:41:11;;;;;;;22.60;12.57;;;;;;;;;;5030096;28;20478;-74
2023/02/22 09:43:40;;;;;;;23.83;13.43;;;;;;;;;;5030644;28;20449;-74
2023/02/22 09:46:17;;;;;;;23.67;12.77;;;;;;;;;;5029502;28;20496;-74
2023/02/22 09:48:51;;;;;;;21.90;14.30;;;;;;;;;;5031679;28;20468;-74
2023/02/22 09:51:21;;;;;;;21.00;13.50;;;;;;;;;;5031251;28;20460;-74
2023/02/22 09:53:49;;;;;;;25.83;13.67;;;;;;;;;;5029939;28;20454;-74
2023/02/22 09:56:17;;;;;;;23.80;13.20;;;;;;;;;;5031073;28;20438;-74
2023/02/22 09:58:46;;;;;;;21.63;12.40;;;;;;;;;;5032540;28;20552;-74
2023/02/22 10:01:21;;;;;;;21.67;12.70;;;;;;;;;;5034638;28;20477;-74
2023/02/22 10:03:52;;;;;;;23.03;13.00;;;;;;;;;;5032444;28;20544;-74
2023/02/22 10:06:23;;;;;;;21.60;12.60;;;;;;;;;;5035237;28;20809;-74
2023/02/22 10:08:55;;;;;;;21.97;13.07;;;;;;;;;;5032633;28;20485;-74
2023/02/22 10:11:29;;;;;;;21.43;12.80;;;;;;;;;;5034632;28;20450;-74
2023/02/22 10:14:00;;;;;;;22.30;12.47;;;;;;;;;;5034971;28;20476;-74
2023/02/22 10:16:35;;;;;;;17.97;12.67;;;;;;;;;;5034953;28;20846;-74
2023/02/22 10:19:16;;;;;;;24.53;13.80;;;;;;;;;;5032680;28;20855;-74
2023/02/22 10:21:50;;;;;;;27.60;13.37;;;;;;;;;;5034748;28;20449;-74
2023/02/22 10:24:25;;;;;;;23.07;12.60;;;;;;;;;;5023595;28;20461;-74
2023/02/22 10:26:53;;;;;;;24.27;14.93;;;;;;;;;;5014876;28;20442;-74
2023/02/22 10:29:28;;;;;;;24.10;12.77;;;;;;;;;;5015170;28;20478;-74
2023/02/22 10:31:57;;;;;;;19.10;12.67;;;;;;;;;;5014232;28;20449;-74
2023/02/22 10:34:27;;;;;;;20.77;11.77;;;;;;;;;;5014000;28;20955;-74
2023/02/22 10:36:58;;;;;;;19.77;12.70;;;;;;;;;;5014893;28;20485;-74
2023/02/22 10:39:27;;;;;;;24.67;12.80;;;;;;;;;;5014327;28;20474;-73
2023/02/22 10:41:56;;;;;;;19.30;12.40;;;;;;;;;;5013269;28;20470;-74
2023/02/22 10:44:24;;;;;;;20.53;11.77;;;;;;;;;;5032781;28;20462;-73
2023/02/22 10:46:52;;;;;;;17.37;11.80;;;;;;;;;;5034429;28;20442;-73
2023/02/22 10:49:20;;;;;;;23.37;12.60;;;;;;;;;;5032096;28;20528;-73
2023/02/22 10:51:48;;;;;;;24.53;13.03;;;;;;;;;;5032832;28;20465;-73
2023/02/22 10:54:25;;;;;;;24.63;13.10;;;;;;;;;;5034196;28;20453;-74
2023/02/22 10:56:54;;;;;;;20.30;12.87;;;;;;;;;;5032186;28;20531;-74
2023/02/22 10:59:28;;;;;;;27.93;11.83;;;;;;;;;;5033809;28;20504;-73
2023/02/22 11:01:55;;;;;;;19.67;12.23;;;;;;;;;;5033720;28;20810;-74
2023/02/22 11:04:23;;;;;;;18.93;11.80;;;;;;;;;;5034062;28;20438;-74
2023/02/22 11:07:07;;;;;;;20.23;10.93;;;;;;;;;;5031601;28;20462;-73
2023/02/22 11:09:46;;;;;;;20.53;10.83;;;;;;;;;;5033753;28;20445;-74
2023/02/22 11:12:17;;;;;;;17.50;10.80;;;;;;;;;;5033600;28;20438;-74
2023/02/22 11:14:44;;;;;;;17.10;11.03;;;;;;;;;;5033352;28;20927;-74
2023/02/22 11:19:49;;;;;;;18.60;9.97;;;;;;;;;;5012540;28;20575;-76
2023/02/22 11:22:21;;;;;;;14.63;9.87;;;;;;;;;;5011473;28;20485;-77
2023/02/22 11:24:52;;;;;;;15.50;10.37;;;;;;;;;;5013897;28;20443;-76
2023/02/22 11:27:30;;;;;;;22.00;10.90;;;;;;;;;;5013466;28;20449;-77
2023/02/22 11:29:59;;;;;;;15.87;10.20;;;;;;;;;;4996280;28;20542;-76
2023/02/22 11:32:26;;;;;;;14.10;8.40;;;;;;;;;;4993790;28;20451;-77
2023/02/22 11:34:53;;;;;;;18.20;8.73;;;;;;;;;;4993965;28;20452;-76
2023/02/22 11:37:29;;;;;;;12.27;9.00;;;;;;;;;;4993804;28;20444;-76
2023/02/22 11:40:10;;;;;;;13.27;8.43;;;;;;;;;;4993131;28;20486;-76
2023/02/22 11:42:37;;;;;;;13.97;9.37;;;;;;;;;;4994031;28;20446;-76
2023/02/22 11:45:12;;;;;;;11.77;6.83;;;;;;;;;;5000447;28;20459;-76
2023/02/22 11:47:47;;;;;;;14.97;8.60;;;;;;;;;;5013106;28;20462;-76
2023/02/22 11:50:21;;;;;;;14.73;8.47;;;;;;;;;;5011153;28;20454;-76
2023/02/22 11:52:52;;;;;;;17.17;8.80;;;;;;;;;;5010119;28;20494;-76
2023/02/22 11:55:24;;;;;;;15.63;7.47;;;;;;;;;;4998801;28;20458;-77
2023/02/22 11:57:56;;;;;;;14.73;8.23;;;;;;;;;;4993120;28;20460;-76
2023/02/22 12:00:28;;;;;;;14.23;7.83;;;;;;;;;;4992330;28;20491;-76
2023/02/22 12:03:07;;;;;;;10.07;6.93;;;;;;;;;;5011779;28;20454;-76
2023/02/22 12:05:45;;;;;;;12.07;8.70;;;;;;;;;;5013384;28;20462;-76
2023/02/22 12:08:19;;;;;;;11.60;7.10;;;;;;;;;;5012806;28;20470;-77
2023/02/22 12:10:54;;;;;;;8.40;6.53;;;;;;;;;;5004672;28;20941;-76
2023/02/22 12:13:31;;;;;;;14.80;6.53;;;;;;;;;;4993261;28;20811;-76
2023/02/22 12:16:03;;;;;;;15.60;7.33;;;;;;;;;;4993244;28;20454;-77
2023/02/22 12:18:33;;;;;;;8.93;7.00;;;;;;;;;;4993043;28;20476;-76
2023/02/22 12:21:04;;;;;;;13.13;6.80;;;;;;;;;;4992528;28;20846;-76
2023/02/22 12:23:44;;;;;;;15.47;7.03;;;;;;;;;;4999138;28;20502;-77
2023/02/22 12:26:15;;;;;;;11.13;6.43;;;;;;;;;;5011072;28;21074;-76
2023/02/22 12:28:43;;;;;;;12.97;8.43;;;;;;;;;;5012615;28;20529;-76
2023/02/22 12:31:16;;;;;;;10.50;7.20;;;;;;;;;;5012299;28;20820;-76
2023/02/22 12:33:48;;;;;;;9.73;6.53;;;;;;;;;;5012764;28;20451;-76
2023/02/22 12:36:16;;;;;;;8.67;6.57;;;;;;;;;;5012359;28;20490;-77
2023/02/22 12:38:46;;;;;;;17.20;6.50;;;;;;;;;;5012458;28;20463;-76
2023/02/22 12:41:19;;;;;;;9.63;6.43;;;;;;;;;;5008762;28;20459;-76
2023/02/22 12:43:47;;;;;;;9.20;6.40;;;;;;;;;;5000210;28;20463;-77
2023/02/22 12:46:18;;;;;;;11.47;7.53;;;;;;;;;;5012377;28;20978;-77
2023/02/22 12:48:50;;;;;;;10.83;6.13;;;;;;;;;;5012544;28;20855;-77
2023/02/22 12:51:26;;;;;;;9.63;6.50;;;;;;;;;;5011610;28;20838;-76
2023/02/22 12:53:55;;;;;;;10.50;6.07;;;;;;;;;;5012546;28;20453;-77
2023/02/22 12:56:26;;;;;;;10.37;7.10;;;;;;;;;;5012330;28;20473;-77
2023/02/22 12:58:56;;;;;;;11.90;6.60;;;;;;;;;;5010091;28;20486;-77
2023/02/22 13:01:25;;;;;;;12.30;6.70;;;;;;;;;;5009804;28;20469;-77
2023/02/22 13:03:54;;;;;;;15.07;7.00;;;;;;;;;;5010038;28;20809;-77
2023/02/22 13:06:27;;;;;;;9.47;5.90;;;;;;;;;;5011986;28;20462;-76
2023/02/22 13:09:02;;;;;;;11.37;6.67;;;;;;;;;;4993270;28;20479;-77
2023/02/22 13:11:34;;;;;;;10.47;6.90;;;;;;;;;;5005958;28;20482;-77
2023/02/22 13:14:09;;;;;;;8.40;5.70;;;;;;;;;;5009806;28;20458;-76
2023/02/22 13:16:39;;;;;;;15.67;9.00;;;;;;;;;;5007340;28;20473;-77
2023/02/22 13:19:13;;;;;;;18.43;9.20;;;;;;;;;;5011787;28;21147;-77
2023/02/22 13:21:46;;;;;;;12.10;6.40;;;;;;;;;;5011894;28;20446;-77
2023/02/22 13:24:18;;;;;;;18.37;6.57;;;;;;;;;;4993174;28;20460;-76
2023/02/22 13:26:50;;;;;;;10.67;6.50;;;;;;;;;;4992463;28;20452;-77
2023/02/22 13:29:21;;;;;;;9.87;6.17;;;;;;;;;;4991554;28;20560;-77
2023/02/22 13:31:56;;;;;;;13.10;6.30;;;;;;;;;;4991329;28;20505;-77
2023/02/22 13:34:34;;;;;;;10.07;6.87;;;;;;;;;;4999042;28;20463;-76
2023/02/22 13:37:07;;;;;;;9.80;6.57;;;;;;;;;;5015921;28;20932;-77
2023/02/22 13:39:39;;;;;;;13.07;7.70;;;;;;;;;;5014397;28;20463;-76
2023/02/22 13:42:21;;;;;;;9.90;6.60;;;;;;;;;;4995707;28;20462;-77
2023/02/22 13:45:07;;;;;;;15.60;8.80;;;;;;;;;;4996227;28;20502;-77
2023/02/22 13:47:42;;;;;;;12.13;7.53;;;;;;;;;;4994810;28;20475;-77
2023/02/22 13:50:25;;;;;;;11.47;6.30;;;;;;;;;;4996245;28;20435;-77
2023/02/22 13:52:54;;;;;;;12.10;6.83;;;;;;;;;;4994690;28;20846;-77
2023/02/22 13:55:26;;;;;;;11.30;5.90;;;;;;;;;;4996040;28;20480;-77
2023/02/22 13:58:01;;;;;;;10.80;6.83;;;;;;;;;;5005230;28;20483;-77
2023/02/22 14:00:49;;;;;;;15.90;6.20;;;;;;;;;;5015682;28;20554;-76
2023/02/22 14:03:35;;;;;;;13.63;7.20;;;;;;;;;;5011823;28;20513;-77
2023/02/22 14:06:02;;;;;;;9.77;6.20;;;;;;;;;;5013068;28;20489;-77
2023/02/22 14:08:45;;;;;;;10.37;6.70;;;;;;;;;;5015592;28;20646;-77
2023/02/22 14:11:31;;;;;;;9.30;6.47;;;;;;;;;;5012824;28;20479;-77
2023/02/22 14:14:13;;;;;;;10.00;6.20;;;;;;;;;;5015218;28;20450;-77
2023/02/22 14:16:40;;;;;;;10.60;6.80;;;;;;;;;;5014832;28;20458;-77
2023/02/22 14:19:14;;;;;;;16.50;7.87;;;;;;;;;;5004079;28;20499;-77
2023/02/22 14:21:56;;;;;;;9.80;6.67;;;;;;;;;;4996440;28;20447;-77
2023/02/22 14:24:23;;;;;;;11.30;6.90;;;;;;;;;;5009154;28;20463;-77
2023/02/22 14:26:55;;;;;;;10.80;6.20;;;;;;;;;;4995344;28;20520;-77
2023/02/22 14:29:24;;;;;;;12.27;7.10;;;;;;;;;;5010551;28;20545;-77
2023/02/22 14:31:58;;;;;;;9.50;7.13;;;;;;;;;;5009380;28;20772;-77
2023/02/22 14:34:40;;;;;;;19.67;7.00;;;;;;;;;;5012914;28;20466;-76
2023/02/22 14:37:09;;;;;;;14.63;7.47;;;;;;;;;;5014557;28;20447;-77
2023/02/22 14:39:37;;;;;;;12.23;7.27;;;;;;;;;;5014436;28;20444;-76